DKR weather

Léopold Sédar Senghor International Airport
Dakar, Dakar Region, Senegal

Public forecast

Using degrees Celsius for public forecast. Weather courtesy of forecast.io.

METAR (pilot weather report)

Retrieved 2019/05/19 07:00 UTC (2 hours ago):

GOOY 190700Z 36004KT CAVOK 21/19 Q1012

TAF (pilot weather forecast)

Retrieved 2019/05/19 06:21 UTC (2 hours ago):

TAF GOOY 190530Z 1906/2012 36010KT CAVOK